Doris — 9HA2632 — position and weather

sailwx.info

Track history (hours):
 
Tides and Currents Weather Stations Pressure Air Temp Water Temp Dewpoint Dewpoint Depression Visibility Wind Speed Wind Dir Waves Ship Positions

Doris

Last reported at 2017-Dec-13 15:38 UTC. Time now 2017-Dec-17 08:27 UTC.
Position N 41°28' E 139°11'.

Length 182 m; draft 6.2 m.

Type: Cargo ship. MMSI: 215080000.

Date/timePositionNaut miles runAvg speedWind from/ knotsBaromVisibWave heightAir tempDewpointWater temp
2017-Dec-13 15:38N 41°28' E 139°11'1 9.8
2017-Dec-13 15:29N 41°28' E 139°13'4 9.0
2017-Dec-13 15:00N 41°26' E 139°19'5 9.9
2017-Dec-13 14:30N 41°24' E 139°25'510.6
2017-Dec-13 14:00N 41°22' E 139°31'510.0
2017-Dec-13 13:31N 41°20' E 139°37'6 9.0
2017-Dec-13 12:48N 41°18' E 139°45'25 8.1
2017-Dec-13 09:42N 41°21' E 140°18'3 9.5
2017-Dec-13 09:25N 41°23' E 140°21'511.4
2017-Dec-13 09:00N 41°26' E 140°26'510.3
2017-Dec-13 08:31N 41°29' E 140°31'510.1
2017-Dec-13 08:00N 41°32' E 140°37'5 9.8
2017-Dec-13 07:30N 41°35' E 140°42'5 9.2
2017-Dec-13 07:01N 41°37' E 140°47'4 8.7
2017-Dec-13 06:30N 41°39' E 140°53'4 8.7
2017-Dec-13 06:00N 41°39' E 140°58'4 7.7
2017-Dec-13 05:30N 41°39' E 141°04'4 8.2
2017-Dec-13 05:00N 41°39' E 141°09'5 9.4
2017-Dec-13 04:31N 41°39' E 141°15'5 9.8
2017-Dec-13 04:01N 41°39' E 141°22'4 8.5
2017-Dec-13 03:30N 41°39' E 141°28'4 7.9
2017-Dec-13 02:59N 41°39' E 141°33'  
Track history (hours):
 
Tides and Currents Weather Stations Pressure Air Temp Water Temp Dewpoint Dewpoint Depression Visibility Wind Speed Wind Dir Waves Ship Positions

Doris

Last reported at 2017-Dec-13 15:38 UTC. Time now 2017-Dec-17 08:27 UTC.
Position N 41°28' E 139°11'.

Length 182 m; draft 6.2 m.

Type: Cargo ship. MMSI: 215080000.

Date/timePositionNaut miles runAvg speedWind from/ knotsBaromVisibWave heightAir tempDewpointWater temp
2017-Dec-13 15:38N 41°28' E 139°11'1 9.8
2017-Dec-13 15:29N 41°28' E 139°13'4 9.0
2017-Dec-13 15:00N 41°26' E 139°19'5 9.9
2017-Dec-13 14:30N 41°24' E 139°25'510.6
2017-Dec-13 14:00N 41°22' E 139°31'510.0
2017-Dec-13 13:31N 41°20' E 139°37'6 9.0
2017-Dec-13 12:48N 41°18' E 139°45'25 8.1
2017-Dec-13 09:42N 41°21' E 140°18'3 9.5
2017-Dec-13 09:25N 41°23' E 140°21'511.4
2017-Dec-13 09:00N 41°26' E 140°26'510.3
2017-Dec-13 08:31N 41°29' E 140°31'510.1
2017-Dec-13 08:00N 41°32' E 140°37'5 9.8
2017-Dec-13 07:30N 41°35' E 140°42'5 9.2
2017-Dec-13 07:01N 41°37' E 140°47'4 8.7
2017-Dec-13 06:30N 41°39' E 140°53'4 8.7
2017-Dec-13 06:00N 41°39' E 140°58'4 7.7
2017-Dec-13 05:30N 41°39' E 141°04'4 8.2
2017-Dec-13 05:00N 41°39' E 141°09'5 9.4
2017-Dec-13 04:31N 41°39' E 141°15'5 9.8
2017-Dec-13 04:01N 41°39' E 141°22'4 8.5
2017-Dec-13 03:30N 41°39' E 141°28'4 7.9
2017-Dec-13 02:59N 41°39' E 141°33'  

Dump ship's entire track history